sensor_id;sensor_type;location;lat;lon;timestamp;P1;durP1;ratioP1;P2;durP2;ratioP2
27201;SDS011;14717;46.924;15.474;2022-12-07T00:00:27;25.08;;;6.55;;
27201;SDS011;14717;46.924;15.474;2022-12-07T00:02:53;17.67;;;6.45;;
27201;SDS011;14717;46.924;15.474;2022-12-07T00:05:18;12.73;;;5.15;;
27201;SDS011;14717;46.924;15.474;2022-12-07T00:07:43;11.43;;;5.13;;
27201;SDS011;14717;46.924;15.474;2022-12-07T00:10:09;14.18;;;5.80;;
27201;SDS011;14717;46.924;15.474;2022-12-07T00:12:34;14.07;;;5.75;;
27201;SDS011;14717;46.924;15.474;2022-12-07T00:14:59;14.27;;;5.25;;
27201;SDS011;14717;46.924;15.474;2022-12-07T00:17:25;16.70;;;5.55;;
27201;SDS011;14717;46.924;15.474;2022-12-07T00:19:50;17.80;;;6.45;;
27201;SDS011;14717;46.924;15.474;2022-12-07T00:22:15;12.55;;;4.95;;
27201;SDS011;14717;46.924;15.474;2022-12-07T00:24:41;16.02;;;5.40;;
27201;SDS011;14717;46.924;15.474;2022-12-07T00:27:06;17.60;;;5.60;;
27201;SDS011;14717;46.924;15.474;2022-12-07T00:29:31;13.00;;;4.60;;
27201;SDS011;14717;46.924;15.474;2022-12-07T00:31:57;17.77;;;5.43;;
27201;SDS011;14717;46.924;15.474;2022-12-07T00:34:22;17.08;;;5.57;;
27201;SDS011;14717;46.924;15.474;2022-12-07T00:36:47;10.80;;;4.93;;
27201;SDS011;14717;46.924;15.474;2022-12-07T00:39:13;17.20;;;5.55;;
27201;SDS011;14717;46.924;15.474;2022-12-07T00:41:38;20.13;;;4.97;;
27201;SDS011;14717;46.924;15.474;2022-12-07T00:44:04;14.77;;;5.07;;
27201;SDS011;14717;46.924;15.474;2022-12-07T00:46:29;15.45;;;5.05;;
27201;SDS011;14717;46.924;15.474;2022-12-07T00:48:55;13.07;;;5.20;;
27201;SDS011;14717;46.924;15.474;2022-12-07T00:51:21;13.95;;;5.30;;
27201;SDS011;14717;46.924;15.474;2022-12-07T00:53:48;11.80;;;5.55;;
27201;SDS011;14717;46.924;15.474;2022-12-07T00:56:16;17.50;;;5.75;;
27201;SDS011;14717;46.924;15.474;2022-12-07T01:01:25;11.02;;;4.90;;
27201;SDS011;14717;46.924;15.474;2022-12-07T01:03:53;12.13;;;5.68;;
27201;SDS011;14717;46.924;15.474;2022-12-07T01:06:19;11.23;;;4.82;;
27201;SDS011;14717;46.924;15.474;2022-12-07T01:08:46;9.73;;;4.88;;
27201;SDS011;14717;46.924;15.474;2022-12-07T01:11:14;12.95;;;5.63;;
27201;SDS011;14717;46.924;15.474;2022-12-07T01:13:42;14.80;;;5.45;;
27201;SDS011;14717;46.924;15.474;2022-12-07T01:16:09;15.50;;;5.18;;
27201;SDS011;14717;46.924;15.474;2022-12-07T01:18:36;14.70;;;5.35;;
27201;SDS011;14717;46.924;15.474;2022-12-07T01:21:05;15.63;;;5.43;;
27201;SDS011;14717;46.924;15.474;2022-12-07T01:23:38;20.33;;;4.93;;
27201;SDS011;14717;46.924;15.474;2022-12-07T01:26:09;12.02;;;5.05;;
27201;SDS011;14717;46.924;15.474;2022-12-07T01:28:36;28.10;;;5.40;;
27201;SDS011;14717;46.924;15.474;2022-12-07T01:31:03;12.90;;;5.15;;
27201;SDS011;14717;46.924;15.474;2022-12-07T01:33:32;10.48;;;5.18;;
27201;SDS011;14717;46.924;15.474;2022-12-07T01:36:00;14.95;;;4.97;;
27201;SDS011;14717;46.924;15.474;2022-12-07T01:38:46;9.90;;;4.40;;
27201;SDS011;14717;46.924;15.474;2022-12-07T01:41:14;20.30;;;5.35;;
27201;SDS011;14717;46.924;15.474;2022-12-07T01:46:51;9.25;;;4.45;;
27201;SDS011;14717;46.924;15.474;2022-12-07T01:49:24;37.75;;;6.30;;
27201;SDS011;14717;46.924;15.474;2022-12-07T01:52:15;12.52;;;4.82;;
27201;SDS011;14717;46.924;15.474;2022-12-07T01:54:42;19.48;;;4.90;;
27201;SDS011;14717;46.924;15.474;2022-12-07T01:57:11;9.80;;;4.50;;
27201;SDS011;14717;46.924;15.474;2022-12-07T01:59:39;11.45;;;4.55;;
27201;SDS011;14717;46.924;15.474;2022-12-07T02:02:06;20.55;;;4.63;;
27201;SDS011;14717;46.924;15.474;2022-12-07T02:04:35;32.08;;;5.40;;
27201;SDS011;14717;46.924;15.474;2022-12-07T02:07:01;11.80;;;4.47;;
27201;SDS011;14717;46.924;15.474;2022-12-07T02:09:28;13.30;;;4.63;;
27201;SDS011;14717;46.924;15.474;2022-12-07T02:11:53;39.28;;;6.00;;
27201;SDS011;14717;46.924;15.474;2022-12-07T02:14:19;45.25;;;6.10;;
27201;SDS011;14717;46.924;15.474;2022-12-07T02:16:59;19.42;;;4.95;;
27201;SDS011;14717;46.924;15.474;2022-12-07T02:19:37;13.15;;;4.60;;
27201;SDS011;14717;46.924;15.474;2022-12-07T02:22:24;21.63;;;4.60;;
27201;SDS011;14717;46.924;15.474;2022-12-07T02:28:05;14.00;;;4.35;;
27201;SDS011;14717;46.924;15.474;2022-12-07T02:30:40;9.90;;;3.83;;
27201;SDS011;14717;46.924;15.474;2022-12-07T02:33:29;17.52;;;4.38;;
27201;SDS011;14717;46.924;15.474;2022-12-07T02:36:04;8.60;;;4.07;;
27201;SDS011;14717;46.924;15.474;2022-12-07T02:38:35;18.02;;;4.22;;
27201;SDS011;14717;46.924;15.474;2022-12-07T02:41:12;23.35;;;4.82;;
27201;SDS011;14717;46.924;15.474;2022-12-07T02:44:03;26.80;;;4.55;;
27201;SDS011;14717;46.924;15.474;2022-12-07T02:46:38;11.93;;;4.32;;
27201;SDS011;14717;46.924;15.474;2022-12-07T02:49:07;7.47;;;3.70;;
27201;SDS011;14717;46.924;15.474;2022-12-07T02:54:07;39.53;;;5.35;;
27201;SDS011;14717;46.924;15.474;2022-12-07T03:18:38;24.08;;;4.75;;
27201;SDS011;14717;46.924;15.474;2022-12-07T03:21:11;11.98;;;4.43;;
27201;SDS011;14717;46.924;15.474;2022-12-07T03:23:41;15.68;;;4.88;;
27201;SDS011;14717;46.924;15.474;2022-12-07T03:26:10;19.42;;;4.63;;
27201;SDS011;14717;46.924;15.474;2022-12-07T03:28:39;18.73;;;4.85;;
27201;SDS011;14717;46.924;15.474;2022-12-07T03:31:15;37.30;;;6.25;;
27201;SDS011;14717;46.924;15.474;2022-12-07T03:33:49;36.22;;;5.30;;
27201;SDS011;14717;46.924;15.474;2022-12-07T03:36:22;14.38;;;4.65;;
27201;SDS011;14717;46.924;15.474;2022-12-07T03:41:42;11.55;;;4.95;;
27201;SDS011;14717;46.924;15.474;2022-12-07T03:44:07;15.90;;;4.70;;
27201;SDS011;14717;46.924;15.474;2022-12-07T03:46:39;15.55;;;4.57;;
27201;SDS011;14717;46.924;15.474;2022-12-07T03:52:10;16.10;;;4.43;;
27201;SDS011;14717;46.924;15.474;2022-12-07T04:00:01;15.15;;;4.47;;
27201;SDS011;14717;46.924;15.474;2022-12-07T04:02:29;24.08;;;5.43;;
27201;SDS011;14717;46.924;15.474;2022-12-07T04:04:55;31.48;;;5.30;;
27201;SDS011;14717;46.924;15.474;2022-12-07T04:07:21;34.83;;;6.05;;
27201;SDS011;14717;46.924;15.474;2022-12-07T04:09:46;30.90;;;5.40;;
27201;SDS011;14717;46.924;15.474;2022-12-07T04:12:12;44.78;;;6.18;;
27201;SDS011;14717;46.924;15.474;2022-12-07T04:14:37;13.63;;;5.03;;
27201;SDS011;14717;46.924;15.474;2022-12-07T04:17:03;20.58;;;5.75;;
27201;SDS011;14717;46.924;15.474;2022-12-07T04:19:29;8.57;;;4.35;;
27201;SDS011;14717;46.924;15.474;2022-12-07T04:21:56;9.23;;;4.47;;
27201;SDS011;14717;46.924;15.474;2022-12-07T04:24:23;13.57;;;4.80;;
27201;SDS011;14717;46.924;15.474;2022-12-07T04:26:49;25.67;;;5.60;;
27201;SDS011;14717;46.924;15.474;2022-12-07T04:29:15;27.38;;;6.03;;
27201;SDS011;14717;46.924;15.474;2022-12-07T04:31:42;34.10;;;5.72;;
27201;SDS011;14717;46.924;15.474;2022-12-07T04:34:08;39.38;;;6.35;;
27201;SDS011;14717;46.924;15.474;2022-12-07T04:36:34;25.92;;;5.32;;
27201;SDS011;14717;46.924;15.474;2022-12-07T04:39:00;21.50;;;5.10;;
27201;SDS011;14717;46.924;15.474;2022-12-07T04:41:26;36.67;;;5.30;;
27201;SDS011;14717;46.924;15.474;2022-12-07T04:43:55;16.88;;;4.43;;
27201;SDS011;14717;46.924;15.474;2022-12-07T04:46:23;37.63;;;6.10;;
27201;SDS011;14717;46.924;15.474;2022-12-07T04:48:49;36.60;;;5.78;;
27201;SDS011;14717;46.924;15.474;2022-12-07T04:51:17;44.25;;;6.68;;
27201;SDS011;14717;46.924;15.474;2022-12-07T04:53:44;32.65;;;6.30;;
27201;SDS011;14717;46.924;15.474;2022-12-07T04:56:10;30.48;;;5.85;;
27201;SDS011;14717;46.924;15.474;2022-12-07T04:58:35;42.97;;;5.68;;
27201;SDS011;14717;46.924;15.474;2022-12-07T05:01:00;32.50;;;5.50;;
27201;SDS011;14717;46.924;15.474;2022-12-07T05:03:26;62.25;;;6.97;;
27201;SDS011;14717;46.924;15.474;2022-12-07T05:05:51;68.63;;;7.80;;
27201;SDS011;14717;46.924;15.474;2022-12-07T05:08:16;22.27;;;5.22;;
27201;SDS011;14717;46.924;15.474;2022-12-07T05:10:42;14.75;;;4.95;;
27201;SDS011;14717;46.924;15.474;2022-12-07T05:13:07;15.35;;;5.43;;
27201;SDS011;14717;46.924;15.474;2022-12-07T05:15:33;15.77;;;5.22;;
27201;SDS011;14717;46.924;15.474;2022-12-07T05:17:58;12.75;;;4.82;;
27201;SDS011;14717;46.924;15.474;2022-12-07T05:20:24;29.05;;;5.45;;
27201;SDS011;14717;46.924;15.474;2022-12-07T05:22:49;16.48;;;4.63;;
27201;SDS011;14717;46.924;15.474;2022-12-07T05:25:14;19.73;;;4.68;;
27201;SDS011;14717;46.924;15.474;2022-12-07T05:27:40;9.80;;;4.30;;
27201;SDS011;14717;46.924;15.474;2022-12-07T05:30:05;8.93;;;4.32;;
27201;SDS011;14717;46.924;15.474;2022-12-07T05:32:31;11.40;;;4.20;;
27201;SDS011;14717;46.924;15.474;2022-12-07T05:34:57;20.00;;;5.35;;
27201;SDS011;14717;46.924;15.474;2022-12-07T05:37:22;29.42;;;5.25;;
27201;SDS011;14717;46.924;15.474;2022-12-07T05:39:47;32.17;;;5.60;;
27201;SDS011;14717;46.924;15.474;2022-12-07T05:42:13;49.85;;;6.43;;
27201;SDS011;14717;46.924;15.474;2022-12-07T05:44:45;13.95;;;5.28;;
27201;SDS011;14717;46.924;15.474;2022-12-07T05:47:11;9.43;;;4.35;;
27201;SDS011;14717;46.924;15.474;2022-12-07T05:49:38;28.08;;;5.18;;
27201;SDS011;14717;46.924;15.474;2022-12-07T05:52:03;11.07;;;4.00;;
27201;SDS011;14717;46.924;15.474;2022-12-07T05:54:29;65.55;;;6.95;;
27201;SDS011;14717;46.924;15.474;2022-12-07T05:56:55;53.35;;;6.18;;
27201;SDS011;14717;46.924;15.474;2022-12-07T05:59:20;18.88;;;4.43;;
27201;SDS011;14717;46.924;15.474;2022-12-07T06:01:59;32.78;;;5.28;;
27201;SDS011;14717;46.924;15.474;2022-12-07T06:04:31;19.17;;;4.70;;
27201;SDS011;14717;46.924;15.474;2022-12-07T06:06:59;15.50;;;4.43;;
27201;SDS011;14717;46.924;15.474;2022-12-07T06:09:25;11.30;;;4.50;;
27201;SDS011;14717;46.924;15.474;2022-12-07T06:11:52;9.88;;;4.20;;
27201;SDS011;14717;46.924;15.474;2022-12-07T06:14:37;9.27;;;3.95;;
27201;SDS011;14717;46.924;15.474;2022-12-07T06:17:03;7.45;;;3.85;;
27201;SDS011;14717;46.924;15.474;2022-12-07T06:19:28;7.07;;;3.63;;
27201;SDS011;14717;46.924;15.474;2022-12-07T06:21:54;8.38;;;4.20;;
27201;SDS011;14717;46.924;15.474;2022-12-07T06:24:20;9.27;;;4.35;;
27201;SDS011;14717;46.924;15.474;2022-12-07T06:26:46;6.63;;;3.80;;
27201;SDS011;14717;46.924;15.474;2022-12-07T06:29:11;10.93;;;4.15;;
27201;SDS011;14717;46.924;15.474;2022-12-07T06:31:38;9.95;;;4.50;;
27201;SDS011;14717;46.924;15.474;2022-12-07T06:34:04;9.07;;;4.80;;
27201;SDS011;14717;46.924;15.474;2022-12-07T06:36:31;10.45;;;4.88;;
27201;SDS011;14717;46.924;15.474;2022-12-07T06:38:57;10.23;;;4.25;;
27201;SDS011;14717;46.924;15.474;2022-12-07T06:41:22;37.47;;;4.90;;
27201;SDS011;14717;46.924;15.474;2022-12-07T06:43:48;16.30;;;4.00;;
27201;SDS011;14717;46.924;15.474;2022-12-07T06:46:14;14.25;;;4.07;;
27201;SDS011;14717;46.924;15.474;2022-12-07T06:48:40;47.55;;;5.53;;
27201;SDS011;14717;46.924;15.474;2022-12-07T06:51:06;36.22;;;5.22;;
27201;SDS011;14717;46.924;15.474;2022-12-07T06:53:32;54.45;;;5.90;;
27201;SDS011;14717;46.924;15.474;2022-12-07T06:55:57;92.53;;;7.25;;
27201;SDS011;14717;46.924;15.474;2022-12-07T06:58:23;50.03;;;5.95;;
27201;SDS011;14717;46.924;15.474;2022-12-07T07:00:48;43.78;;;5.82;;
27201;SDS011;14717;46.924;15.474;2022-12-07T07:03:15;36.03;;;5.05;;
27201;SDS011;14717;46.924;15.474;2022-12-07T07:05:41;48.55;;;5.88;;
27201;SDS011;14717;46.924;15.474;2022-12-07T07:08:07;9.98;;;3.88;;
27201;SDS011;14717;46.924;15.474;2022-12-07T07:10:32;10.20;;;4.13;;
27201;SDS011;14717;46.924;15.474;2022-12-07T07:12:58;7.72;;;3.83;;
27201;SDS011;14717;46.924;15.474;2022-12-07T07:15:24;11.18;;;4.38;;
27201;SDS011;14717;46.924;15.474;2022-12-07T07:17:49;17.45;;;5.22;;
27201;SDS011;14717;46.924;15.474;2022-12-07T07:20:14;61.00;;;7.03;;
27201;SDS011;14717;46.924;15.474;2022-12-07T07:22:40;14.98;;;4.40;;
27201;SDS011;14717;46.924;15.474;2022-12-07T07:25:06;9.98;;;4.47;;
27201;SDS011;14717;46.924;15.474;2022-12-07T07:27:32;12.88;;;5.20;;
27201;SDS011;14717;46.924;15.474;2022-12-07T07:29:57;13.73;;;4.45;;
27201;SDS011;14717;46.924;15.474;2022-12-07T07:32:22;8.73;;;4.18;;
27201;SDS011;14717;46.924;15.474;2022-12-07T07:34:48;10.52;;;4.63;;
27201;SDS011;14717;46.924;15.474;2022-12-07T07:37:13;9.45;;;4.28;;
27201;SDS011;14717;46.924;15.474;2022-12-07T07:39:39;43.85;;;6.38;;
27201;SDS011;14717;46.924;15.474;2022-12-07T07:42:04;61.20;;;7.45;;
27201;SDS011;14717;46.924;15.474;2022-12-07T07:44:30;47.65;;;6.53;;
27201;SDS011;14717;46.924;15.474;2022-12-07T07:46:55;38.58;;;6.32;;
27201;SDS011;14717;46.924;15.474;2022-12-07T07:49:21;20.63;;;5.57;;
27201;SDS011;14717;46.924;15.474;2022-12-07T07:51:46;47.20;;;6.18;;
27201;SDS011;14717;46.924;15.474;2022-12-07T07:54:12;41.17;;;6.07;;
27201;SDS011;14717;46.924;15.474;2022-12-07T07:56:37;8.23;;;4.70;;
27201;SDS011;14717;46.924;15.474;2022-12-07T07:59:02;12.02;;;4.75;;
27201;SDS011;14717;46.924;15.474;2022-12-07T08:01:28;12.90;;;4.63;;
27201;SDS011;14717;46.924;15.474;2022-12-07T08:03:53;12.02;;;5.18;;
27201;SDS011;14717;46.924;15.474;2022-12-07T08:06:18;21.15;;;5.40;;
27201;SDS011;14717;46.924;15.474;2022-12-07T08:08:44;37.95;;;5.78;;
27201;SDS011;14717;46.924;15.474;2022-12-07T08:11:09;28.88;;;5.43;;
27201;SDS011;14717;46.924;15.474;2022-12-07T08:13:35;9.55;;;4.57;;
27201;SDS011;14717;46.924;15.474;2022-12-07T08:16:05;9.25;;;4.55;;
27201;SDS011;14717;46.924;15.474;2022-12-07T08:18:34;11.48;;;4.80;;
27201;SDS011;14717;46.924;15.474;2022-12-07T08:21:01;19.00;;;5.40;;
27201;SDS011;14717;46.924;15.474;2022-12-07T08:23:27;29.73;;;6.03;;
27201;SDS011;14717;46.924;15.474;2022-12-07T08:25:53;20.88;;;5.35;;
27201;SDS011;14717;46.924;15.474;2022-12-07T08:28:18;22.73;;;5.68;;
27201;SDS011;14717;46.924;15.474;2022-12-07T08:30:44;15.98;;;5.55;;
27201;SDS011;14717;46.924;15.474;2022-12-07T08:33:09;11.40;;;4.70;;
27201;SDS011;14717;46.924;15.474;2022-12-07T08:35:35;14.45;;;5.13;;
27201;SDS011;14717;46.924;15.474;2022-12-07T08:38:03;13.63;;;5.05;;
27201;SDS011;14717;46.924;15.474;2022-12-07T08:40:28;12.50;;;5.60;;
27201;SDS011;14717;46.924;15.474;2022-12-07T08:42:54;9.82;;;4.55;;
27201;SDS011;14717;46.924;15.474;2022-12-07T08:45:20;14.27;;;5.00;;
27201;SDS011;14717;46.924;15.474;2022-12-07T08:47:50;19.25;;;5.22;;
27201;SDS011;14717;46.924;15.474;2022-12-07T08:50:27;15.45;;;5.22;;
27201;SDS011;14717;46.924;15.474;2022-12-07T08:52:54;12.20;;;4.80;;
27201;SDS011;14717;46.924;15.474;2022-12-07T08:55:21;9.50;;;4.93;;
27201;SDS011;14717;46.924;15.474;2022-12-07T08:57:47;11.85;;;4.65;;
27201;SDS011;14717;46.924;15.474;2022-12-07T09:00:13;9.95;;;5.00;;
27201;SDS011;14717;46.924;15.474;2022-12-07T09:02:39;9.60;;;4.50;;
27201;SDS011;14717;46.924;15.474;2022-12-07T09:05:05;9.13;;;4.50;;
27201;SDS011;14717;46.924;15.474;2022-12-07T09:07:31;8.45;;;4.20;;
27201;SDS011;14717;46.924;15.474;2022-12-07T09:09:58;9.35;;;4.97;;
27201;SDS011;14717;46.924;15.474;2022-12-07T09:12:23;7.28;;;4.03;;
27201;SDS011;14717;46.924;15.474;2022-12-07T09:14:48;9.45;;;4.78;;
27201;SDS011;14717;46.924;15.474;2022-12-07T09:17:14;9.00;;;4.90;;
27201;SDS011;14717;46.924;15.474;2022-12-07T09:19:39;9.10;;;4.35;;
27201;SDS011;14717;46.924;15.474;2022-12-07T09:22:06;9.82;;;4.97;;
27201;SDS011;14717;46.924;15.474;2022-12-07T09:24:32;9.38;;;4.90;;
27201;SDS011;14717;46.924;15.474;2022-12-07T09:26:58;9.52;;;4.85;;
27201;SDS011;14717;46.924;15.474;2022-12-07T09:29:23;9.25;;;4.80;;
27201;SDS011;14717;46.924;15.474;2022-12-07T09:31:49;11.10;;;5.38;;
27201;SDS011;14717;46.924;15.474;2022-12-07T09:34:14;11.75;;;4.90;;
27201;SDS011;14717;46.924;15.474;2022-12-07T09:36:39;10.02;;;4.60;;
27201;SDS011;14717;46.924;15.474;2022-12-07T09:39:05;8.25;;;4.28;;
27201;SDS011;14717;46.924;15.474;2022-12-07T09:41:31;8.70;;;4.43;;
27201;SDS011;14717;46.924;15.474;2022-12-07T09:44:08;8.68;;;4.63;;
27201;SDS011;14717;46.924;15.474;2022-12-07T09:46:40;9.32;;;4.82;;
27201;SDS011;14717;46.924;15.474;2022-12-07T09:49:31;8.20;;;5.07;;
27201;SDS011;14717;46.924;15.474;2022-12-07T09:52:01;8.18;;;4.75;;
27201;SDS011;14717;46.924;15.474;2022-12-07T09:54:34;10.25;;;4.88;;
27201;SDS011;14717;46.924;15.474;2022-12-07T09:57:01;9.25;;;4.95;;
27201;SDS011;14717;46.924;15.474;2022-12-07T09:59:27;9.88;;;4.93;;
27201;SDS011;14717;46.924;15.474;2022-12-07T10:01:53;10.93;;;4.68;;
27201;SDS011;14717;46.924;15.474;2022-12-07T10:04:22;8.50;;;4.70;;
27201;SDS011;14717;46.924;15.474;2022-12-07T10:06:50;10.80;;;4.85;;
27201;SDS011;14717;46.924;15.474;2022-12-07T10:09:17;15.60;;;5.18;;
27201;SDS011;14717;46.924;15.474;2022-12-07T10:14:30;8.95;;;4.53;;
27201;SDS011;14717;46.924;15.474;2022-12-07T10:16:58;7.88;;;4.75;;
27201;SDS011;14717;46.924;15.474;2022-12-07T10:19:26;8.23;;;4.75;;
27201;SDS011;14717;46.924;15.474;2022-12-07T10:24:26;8.40;;;4.75;;
27201;SDS011;14717;46.924;15.474;2022-12-07T10:26:51;8.63;;;5.03;;
27201;SDS011;14717;46.924;15.474;2022-12-07T10:31:59;8.77;;;4.25;;
27201;SDS011;14717;46.924;15.474;2022-12-07T10:34:49;10.70;;;5.38;;
27201;SDS011;14717;46.924;15.474;2022-12-07T10:37:19;8.55;;;4.88;;
27201;SDS011;14717;46.924;15.474;2022-12-07T10:39:46;10.57;;;5.55;;
27201;SDS011;14717;46.924;15.474;2022-12-07T10:44:45;9.43;;;5.40;;
27201;SDS011;14717;46.924;15.474;2022-12-07T10:50:01;8.50;;;4.78;;
27201;SDS011;14717;46.924;15.474;2022-12-07T10:55:19;10.02;;;4.85;;
27201;SDS011;14717;46.924;15.474;2022-12-07T11:00:27;8.68;;;5.00;;
27201;SDS011;14717;46.924;15.474;2022-12-07T11:18:50;11.82;;;5.65;;
27201;SDS011;14717;46.924;15.474;2022-12-07T11:24:27;11.70;;;5.72;;
27201;SDS011;14717;46.924;15.474;2022-12-07T11:27:12;12.75;;;5.85;;
27201;SDS011;14717;46.924;15.474;2022-12-07T11:37:55;16.48;;;6.50;;
27201;SDS011;14717;46.924;15.474;2022-12-07T11:40:33;13.57;;;7.05;;
27201;SDS011;14717;46.924;15.474;2022-12-07T11:43:02;13.43;;;6.22;;
27201;SDS011;14717;46.924;15.474;2022-12-07T11:45:41;12.07;;;6.45;;
27201;SDS011;14717;46.924;15.474;2022-12-07T11:48:14;15.43;;;6.32;;
27201;SDS011;14717;46.924;15.474;2022-12-07T11:50:47;15.10;;;6.88;;
27201;SDS011;14717;46.924;15.474;2022-12-07T11:56:15;13.43;;;6.85;;
27201;SDS011;14717;46.924;15.474;2022-12-07T12:01:39;12.43;;;5.97;;
27201;SDS011;14717;46.924;15.474;2022-12-07T12:04:25;13.00;;;6.45;;
27201;SDS011;14717;46.924;15.474;2022-12-07T12:06:55;14.38;;;7.30;;
27201;SDS011;14717;46.924;15.474;2022-12-07T12:09:41;18.65;;;7.47;;
27201;SDS011;14717;46.924;15.474;2022-12-07T12:21:02;15.60;;;7.18;;
27201;SDS011;14717;46.924;15.474;2022-12-07T12:23:41;17.30;;;7.80;;
27201;SDS011;14717;46.924;15.474;2022-12-07T12:26:07;14.50;;;7.03;;
27201;SDS011;14717;46.924;15.474;2022-12-07T12:33:49;15.95;;;7.20;;
27201;SDS011;14717;46.924;15.474;2022-12-07T12:50:10;15.52;;;7.40;;
27201;SDS011;14717;46.924;15.474;2022-12-07T12:57:32;13.70;;;7.47;;
27201;SDS011;14717;46.924;15.474;2022-12-07T12:59:58;16.00;;;6.90;;
27201;SDS011;14717;46.924;15.474;2022-12-07T13:02:28;14.57;;;7.40;;
27201;SDS011;14717;46.924;15.474;2022-12-07T13:18:34;16.70;;;7.65;;
27201;SDS011;14717;46.924;15.474;2022-12-07T13:23:23;15.23;;;7.50;;
27201;SDS011;14717;46.924;15.474;2022-12-07T13:25:54;16.35;;;7.07;;
27201;SDS011;14717;46.924;15.474;2022-12-07T13:28:27;16.25;;;7.25;;
27201;SDS011;14717;46.924;15.474;2022-12-07T13:31:02;14.18;;;6.72;;
27201;SDS011;14717;46.924;15.474;2022-12-07T13:33:35;13.48;;;7.00;;
27201;SDS011;14717;46.924;15.474;2022-12-07T13:36:01;15.05;;;7.35;;
27201;SDS011;14717;46.924;15.474;2022-12-07T13:38:31;14.38;;;7.20;;
27201;SDS011;14717;46.924;15.474;2022-12-07T13:41:14;13.80;;;6.72;;
27201;SDS011;14717;46.924;15.474;2022-12-07T13:43:45;15.05;;;7.00;;
27201;SDS011;14717;46.924;15.474;2022-12-07T13:46:15;14.35;;;7.00;;
27201;SDS011;14717;46.924;15.474;2022-12-07T13:48:45;14.25;;;7.10;;
27201;SDS011;14717;46.924;15.474;2022-12-07T13:51:20;11.90;;;6.70;;
27201;SDS011;14717;46.924;15.474;2022-12-07T13:53:48;14.05;;;6.93;;
27201;SDS011;14717;46.924;15.474;2022-12-07T13:56:15;14.27;;;7.03;;
27201;SDS011;14717;46.924;15.474;2022-12-07T13:58:41;15.48;;;6.90;;
27201;SDS011;14717;46.924;15.474;2022-12-07T14:01:06;12.98;;;6.32;;
27201;SDS011;14717;46.924;15.474;2022-12-07T14:03:33;15.00;;;6.75;;
27201;SDS011;14717;46.924;15.474;2022-12-07T14:06:13;16.15;;;7.18;;
27201;SDS011;14717;46.924;15.474;2022-12-07T14:08:42;12.32;;;6.30;;
27201;SDS011;14717;46.924;15.474;2022-12-07T14:11:10;14.02;;;6.18;;
27201;SDS011;14717;46.924;15.474;2022-12-07T14:18:53;13.52;;;6.50;;
27201;SDS011;14717;46.924;15.474;2022-12-07T14:21:20;17.05;;;6.88;;
27201;SDS011;14717;46.924;15.474;2022-12-07T14:26:48;13.20;;;6.95;;
27201;SDS011;14717;46.924;15.474;2022-12-07T14:31:53;15.00;;;7.15;;
27201;SDS011;14717;46.924;15.474;2022-12-07T14:34:19;13.10;;;6.72;;
27201;SDS011;14717;46.924;15.474;2022-12-07T14:36:45;12.68;;;6.25;;
27201;SDS011;14717;46.924;15.474;2022-12-07T14:39:11;12.68;;;6.80;;
27201;SDS011;14717;46.924;15.474;2022-12-07T14:41:36;13.20;;;6.97;;
27201;SDS011;14717;46.924;15.474;2022-12-07T14:44:20;14.65;;;6.72;;
27201;SDS011;14717;46.924;15.474;2022-12-07T14:46:47;12.63;;;7.07;;
27201;SDS011;14717;46.924;15.474;2022-12-07T14:49:14;15.02;;;7.00;;
27201;SDS011;14717;46.924;15.474;2022-12-07T14:51:40;16.52;;;7.55;;
27201;SDS011;14717;46.924;15.474;2022-12-07T14:54:11;13.27;;;7.38;;
27201;SDS011;14717;46.924;15.474;2022-12-07T14:56:42;13.35;;;7.40;;
27201;SDS011;14717;46.924;15.474;2022-12-07T14:59:09;13.45;;;6.93;;
27201;SDS011;14717;46.924;15.474;2022-12-07T15:01:35;12.85;;;6.75;;
27201;SDS011;14717;46.924;15.474;2022-12-07T15:04:00;14.13;;;7.18;;
27201;SDS011;14717;46.924;15.474;2022-12-07T15:06:26;14.57;;;6.95;;
27201;SDS011;14717;46.924;15.474;2022-12-07T15:08:51;13.55;;;6.78;;
27201;SDS011;14717;46.924;15.474;2022-12-07T15:11:17;11.82;;;5.88;;
27201;SDS011;14717;46.924;15.474;2022-12-07T15:13:43;13.02;;;6.38;;
27201;SDS011;14717;46.924;15.474;2022-12-07T15:16:27;12.23;;;6.07;;
27201;SDS011;14717;46.924;15.474;2022-12-07T15:18:52;11.80;;;6.13;;
27201;SDS011;14717;46.924;15.474;2022-12-07T15:21:17;11.77;;;6.40;;
27201;SDS011;14717;46.924;15.474;2022-12-07T15:23:43;13.15;;;6.53;;
27201;SDS011;14717;46.924;15.474;2022-12-07T15:26:10;12.27;;;6.05;;
27201;SDS011;14717;46.924;15.474;2022-12-07T15:28:35;11.57;;;6.40;;
27201;SDS011;14717;46.924;15.474;2022-12-07T15:31:01;11.38;;;6.30;;
27201;SDS011;14717;46.924;15.474;2022-12-07T15:33:26;12.20;;;6.63;;
27201;SDS011;14717;46.924;15.474;2022-12-07T15:35:52;12.80;;;6.63;;
27201;SDS011;14717;46.924;15.474;2022-12-07T15:38:17;13.30;;;6.78;;
27201;SDS011;14717;46.924;15.474;2022-12-07T15:40:42;10.93;;;6.57;;
27201;SDS011;14717;46.924;15.474;2022-12-07T15:43:11;11.80;;;6.32;;
27201;SDS011;14717;46.924;15.474;2022-12-07T15:45:56;13.80;;;6.72;;
27201;SDS011;14717;46.924;15.474;2022-12-07T15:48:21;12.45;;;6.80;;
27201;SDS011;14717;46.924;15.474;2022-12-07T15:50:46;13.27;;;6.45;;
27201;SDS011;14717;46.924;15.474;2022-12-07T15:53:12;12.95;;;6.78;;
27201;SDS011;14717;46.924;15.474;2022-12-07T15:55:40;13.52;;;7.15;;
27201;SDS011;14717;46.924;15.474;2022-12-07T15:58:06;12.57;;;6.85;;
27201;SDS011;14717;46.924;15.474;2022-12-07T16:00:32;14.75;;;6.97;;
27201;SDS011;14717;46.924;15.474;2022-12-07T16:02:57;14.27;;;7.38;;
27201;SDS011;14717;46.924;15.474;2022-12-07T16:05:23;12.70;;;6.65;;
27201;SDS011;14717;46.924;15.474;2022-12-07T16:07:48;15.10;;;7.47;;
27201;SDS011;14717;46.924;15.474;2022-12-07T16:10:13;12.45;;;6.50;;
27201;SDS011;14717;46.924;15.474;2022-12-07T16:12:39;14.90;;;7.20;;
27201;SDS011;14717;46.924;15.474;2022-12-07T16:15:04;13.77;;;7.20;;
27201;SDS011;14717;46.924;15.474;2022-12-07T16:17:30;14.40;;;7.15;;
27201;SDS011;14717;46.924;15.474;2022-12-07T16:19:55;14.15;;;7.07;;
27201;SDS011;14717;46.924;15.474;2022-12-07T16:22:22;14.27;;;6.85;;
27201;SDS011;14717;46.924;15.474;2022-12-07T16:24:48;12.82;;;6.78;;
27201;SDS011;14717;46.924;15.474;2022-12-07T16:27:13;13.55;;;7.70;;
27201;SDS011;14717;46.924;15.474;2022-12-07T16:29:39;14.27;;;6.90;;
27201;SDS011;14717;46.924;15.474;2022-12-07T16:32:04;14.68;;;7.68;;
27201;SDS011;14717;46.924;15.474;2022-12-07T16:34:30;14.43;;;7.60;;
27201;SDS011;14717;46.924;15.474;2022-12-07T16:36:55;15.40;;;7.47;;
27201;SDS011;14717;46.924;15.474;2022-12-07T16:39:20;16.02;;;7.40;;
27201;SDS011;14717;46.924;15.474;2022-12-07T16:41:46;14.23;;;7.30;;
27201;SDS011;14717;46.924;15.474;2022-12-07T16:44:11;15.55;;;7.82;;
27201;SDS011;14717;46.924;15.474;2022-12-07T16:46:38;16.90;;;7.68;;
27201;SDS011;14717;46.924;15.474;2022-12-07T16:49:04;15.70;;;6.93;;
27201;SDS011;14717;46.924;15.474;2022-12-07T16:51:29;16.73;;;8.65;;
27201;SDS011;14717;46.924;15.474;2022-12-07T16:53:55;16.67;;;8.18;;
27201;SDS011;14717;46.924;15.474;2022-12-07T16:56:20;18.05;;;9.75;;
27201;SDS011;14717;46.924;15.474;2022-12-07T16:58:46;16.42;;;7.40;;
27201;SDS011;14717;46.924;15.474;2022-12-07T17:01:20;15.90;;;7.55;;
27201;SDS011;14717;46.924;15.474;2022-12-07T17:03:49;52.13;;;18.70;;